createdAt,value
2019-06-01T00:00:12.365Z,16.40
2019-06-01T00:02:58.448Z,16.40
2019-06-01T00:05:42.547Z,16.40
2019-06-01T00:08:27.335Z,16.30
2019-06-01T00:11:11.236Z,16.30
2019-06-01T00:13:55.227Z,16.30
2019-06-01T00:16:39.930Z,16.20
2019-06-01T00:19:24.579Z,16.20
2019-06-01T00:22:08.731Z,16.20
2019-06-01T00:24:52.964Z,16.20
2019-06-01T00:27:37.248Z,16.10
2019-06-01T00:30:26.931Z,16.10
2019-06-01T00:33:07.005Z,16.10
2019-06-01T00:35:51.621Z,16.10
2019-06-01T00:38:35.801Z,16.10
2019-06-01T00:41:19.903Z,16.00
2019-06-01T00:44:04.459Z,16.00
2019-06-01T00:46:48.712Z,16.00
2019-06-01T00:49:33.355Z,16.00
2019-06-01T00:52:17.689Z,16.00
2019-06-01T00:55:02.411Z,16.00
2019-06-01T00:57:47.344Z,16.00
2019-06-01T01:00:43.147Z,16.00
2019-06-01T01:03:17.651Z,16.00
2019-06-01T01:06:01.244Z,15.90
2019-06-01T01:08:47.087Z,15.90
2019-06-01T01:11:31.818Z,15.90
2019-06-01T01:14:15.763Z,15.90
2019-06-01T01:17:00.225Z,15.90
2019-06-01T01:19:44.161Z,15.90
2019-06-01T01:22:28.396Z,15.90
2019-06-01T01:25:12.314Z,15.90
2019-06-01T01:27:57.044Z,15.90
2019-06-01T01:30:40.799Z,15.90
2019-06-01T01:33:24.671Z,15.90
2019-06-01T01:36:09.134Z,15.90
2019-06-01T01:38:54.234Z,15.90
2019-06-01T01:41:39.503Z,15.90
2019-06-01T01:44:24.779Z,15.90
2019-06-01T01:47:09.668Z,15.90
2019-06-01T01:49:54.105Z,15.90
2019-06-01T01:52:38.650Z,15.90
2019-06-01T01:55:23.123Z,15.90
2019-06-01T01:58:07.807Z,15.90
2019-06-01T02:00:54.059Z,15.90
2019-06-01T02:03:37.925Z,15.80
2019-06-01T02:06:21.608Z,15.80
2019-06-01T02:09:07.233Z,15.80
2019-06-01T02:11:51.379Z,15.70
2019-06-01T02:14:35.201Z,15.70
2019-06-01T02:17:19.928Z,15.70
2019-06-01T02:20:03.886Z,15.70
2019-06-01T02:22:47.774Z,15.70
2019-06-01T02:25:32.373Z,15.70
2019-06-01T02:28:16.724Z,15.70
2019-06-01T02:31:02.063Z,15.70
2019-06-01T02:33:46.835Z,15.70
2019-06-01T02:36:30.836Z,15.70
2019-06-01T02:39:15.550Z,15.70
2019-06-01T02:42:01.061Z,15.80
2019-06-01T02:44:44.963Z,15.80
2019-06-01T02:47:28.614Z,15.70
2019-06-01T02:50:12.185Z,15.70
2019-06-01T02:52:57.272Z,15.70
2019-06-01T02:55:41.463Z,15.70
2019-06-01T02:58:25.891Z,15.70
2019-06-01T03:01:28.696Z,15.60
2019-06-01T03:04:12.419Z,15.60
2019-06-01T03:06:57.272Z,15.60
2019-06-01T03:09:41.231Z,15.60
2019-06-01T03:12:25.027Z,15.60
2019-06-01T03:15:09.521Z,15.60
2019-06-01T03:17:53.312Z,15.70
2019-06-01T03:20:37.087Z,15.70
2019-06-01T03:23:21.079Z,15.70
2019-06-01T03:26:06.199Z,15.70
2019-06-01T03:28:51.720Z,15.70
2019-06-01T03:31:36.116Z,15.70
2019-06-01T03:34:19.686Z,15.70
2019-06-01T03:37:04.953Z,15.70
2019-06-01T03:39:49.386Z,15.70
2019-06-01T03:42:33.942Z,15.70
2019-06-01T03:45:18.286Z,15.60
2019-06-01T03:48:02.599Z,15.70
2019-06-01T03:50:46.878Z,15.70
2019-06-01T03:53:30.690Z,15.70
2019-06-01T03:56:14.965Z,15.70
2019-06-01T03:58:58.861Z,15.70
2019-06-01T04:01:43.563Z,15.70
2019-06-01T04:04:28.105Z,15.70
2019-06-01T04:07:13.268Z,15.70
2019-06-01T04:09:56.885Z,15.80
2019-06-01T04:12:40.911Z,15.90
2019-06-01T04:15:25.789Z,15.90
2019-06-01T04:18:10.347Z,15.90
2019-06-01T04:20:54.626Z,15.90
2019-06-01T04:23:39.029Z,15.90
2019-06-01T04:26:23.628Z,15.90
2019-06-01T04:29:08.266Z,15.90
2019-06-01T04:31:53.239Z,15.90
2019-06-01T04:34:37.582Z,16.00
2019-06-01T04:37:21.101Z,16.00
2019-06-01T04:40:05.330Z,16.10
2019-06-01T04:42:49.581Z,16.10
2019-06-01T04:45:34.890Z,16.10
2019-06-01T04:48:19.325Z,16.20
2019-06-01T04:51:03.056Z,16.20
2019-06-01T04:53:46.106Z,16.30
2019-06-01T04:56:30.603Z,16.20
2019-06-01T04:59:15.372Z,16.30
2019-06-01T05:01:59.846Z,16.20
2019-06-01T05:04:43.895Z,16.30
2019-06-01T05:07:28.463Z,16.30
2019-06-01T05:10:14.246Z,16.40
2019-06-01T05:12:59.053Z,16.40
2019-06-01T05:15:43.544Z,16.50
2019-06-01T05:18:27.142Z,16.50
2019-06-01T05:21:10.765Z,16.50
2019-06-01T05:23:54.526Z,16.60
2019-06-01T05:26:39.014Z,16.60
2019-06-01T05:29:23.324Z,16.60
2019-06-01T05:32:06.984Z,16.70
2019-06-01T05:34:50.907Z,16.80
2019-06-01T05:37:34.864Z,16.80
2019-06-01T05:40:19.758Z,16.80
2019-06-01T05:43:04.117Z,16.70
2019-06-01T05:45:48.359Z,16.80
2019-06-01T05:48:32.718Z,16.80
2019-06-01T05:51:18.571Z,16.90
2019-06-01T05:54:02.988Z,17.00
2019-06-01T05:56:47.326Z,17.10
2019-06-01T05:59:31.852Z,17.10
2019-06-01T06:02:16.052Z,17.20
2019-06-01T06:05:00.271Z,17.30
2019-06-01T06:07:43.868Z,17.50
2019-06-01T06:10:28.158Z,17.70
2019-06-01T06:13:11.688Z,17.90
2019-06-01T06:15:56.043Z,18.30
2019-06-01T06:18:40.102Z,18.60
2019-06-01T06:21:24.541Z,18.80
2019-06-01T06:24:08.703Z,19.20
2019-06-01T06:26:52.747Z,19.50
2019-06-01T06:29:37.753Z,19.70
2019-06-01T06:32:23.352Z,19.90
2019-06-01T06:35:07.964Z,19.90
2019-06-01T06:37:52.925Z,20.10
2019-06-01T06:40:37.324Z,20.20
2019-06-01T06:43:29.711Z,20.40
2019-06-01T06:46:06.741Z,20.60
2019-06-01T06:48:51.355Z,20.50
2019-06-01T06:51:35.211Z,20.80
2019-06-01T06:54:19.865Z,21.30
2019-06-01T06:57:04.721Z,21.40
2019-06-01T06:59:49.052Z,21.30
2019-06-01T07:02:32.778Z,21.10
2019-06-01T07:05:17.232Z,21.20
2019-06-01T07:08:01.195Z,21.40
2019-06-01T07:10:45.228Z,21.70
2019-06-01T07:13:28.990Z,22.00
2019-06-01T07:16:13.573Z,22.20
2019-06-01T07:18:57.354Z,22.30
2019-06-01T07:21:41.388Z,22.30
2019-06-01T07:24:26.038Z,22.00
2019-06-01T07:27:11.258Z,22.00
2019-06-01T07:29:55.505Z,21.40
2019-06-01T07:32:39.662Z,21.20
2019-06-01T07:35:24.974Z,21.40
2019-06-01T07:38:09.071Z,21.70
2019-06-01T07:40:52.940Z,21.90
2019-06-01T07:43:36.545Z,22.20
2019-06-01T07:46:20.841Z,22.40
2019-06-01T07:49:06.373Z,22.10
2019-06-01T07:51:50.756Z,22.10
2019-06-01T07:54:34.462Z,22.70
2019-06-01T07:57:18.583Z,23.50
2019-06-01T08:00:03.913Z,23.40
2019-06-01T08:02:50.277Z,23.20
2019-06-01T08:05:34.569Z,23.40
2019-06-01T08:08:18.048Z,23.60
2019-06-01T08:10:50.654Z,24.00
2019-06-01T08:13:35.835Z,24.30
2019-06-01T08:16:21.434Z,24.40
2019-06-01T08:19:05.343Z,24.20
2019-06-01T08:21:49.759Z,24.50
2019-06-01T08:24:33.534Z,25.00
2019-06-01T08:27:17.618Z,24.80
2019-06-01T08:30:01.871Z,24.80
2019-06-01T08:32:46.049Z,25.00
2019-06-01T08:35:31.242Z,25.20
2019-06-01T08:38:15.327Z,25.60
2019-06-01T08:40:59.830Z,25.80
2019-06-01T08:43:43.479Z,25.80
2019-06-01T08:46:27.709Z,25.80
2019-06-01T08:49:12.941Z,25.50
2019-06-01T08:51:56.749Z,25.60
2019-06-01T08:54:40.573Z,26.00
2019-06-01T08:57:24.363Z,26.40
2019-06-01T08:59:56.663Z,26.70
2019-06-01T09:02:40.298Z,26.70
2019-06-01T09:05:26.205Z,26.90
2019-06-01T09:08:09.505Z,27.00
2019-06-01T09:10:53.935Z,26.40
2019-06-01T09:13:37.473Z,25.90
2019-06-01T09:16:25.374Z,25.60
2019-06-01T09:19:11.324Z,25.70
2019-06-01T09:21:54.573Z,26.00
2019-06-01T09:24:38.497Z,26.60
2019-06-01T09:27:22.399Z,26.20
2019-06-01T09:30:06.888Z,25.80
2019-06-01T09:32:51.194Z,26.20
2019-06-01T09:35:53.687Z,26.80
2019-06-01T09:38:20.839Z,26.90
2019-06-01T09:41:04.650Z,26.80
2019-06-01T09:43:48.639Z,26.90
2019-06-01T09:46:34.005Z,26.90
2019-06-01T09:49:18.853Z,27.10
2019-06-01T09:52:03.124Z,26.80
2019-06-01T09:54:46.877Z,27.00
2019-06-01T09:57:31.991Z,27.30
2019-06-01T10:00:15.784Z,27.40
2019-06-01T10:02:59.986Z,27.20
2019-06-01T10:05:58.431Z,27.50
2019-06-01T10:08:32.410Z,27.50
2019-06-01T10:11:16.037Z,27.50
2019-06-01T10:13:59.790Z,27.60
2019-06-01T10:16:43.445Z,27.50
2019-06-01T10:19:27.692Z,27.90
2019-06-01T10:22:12.449Z,27.70
2019-06-01T10:24:56.298Z,27.40
2019-06-01T10:27:40.584Z,27.50
2019-06-01T10:30:24.110Z,27.90
2019-06-01T10:33:07.827Z,28.00
2019-06-01T10:35:51.629Z,27.90
2019-06-01T10:38:35.477Z,27.90
2019-06-01T10:41:19.984Z,27.90
2019-06-01T10:44:04.294Z,28.20
2019-06-01T10:46:48.004Z,28.50
2019-06-01T10:49:31.851Z,28.70
2019-06-01T10:52:15.655Z,28.70
2019-06-01T10:54:59.988Z,28.70
2019-06-01T10:57:44.173Z,28.70
2019-06-01T11:00:39.694Z,28.50
2019-06-01T11:03:14.552Z,28.20
2019-06-01T11:05:59.897Z,28.50
2019-06-01T11:08:43.622Z,28.60
2019-06-01T11:11:29.745Z,28.90
2019-06-01T11:14:14.058Z,29.00
2019-06-01T11:16:58.414Z,28.50
2019-06-01T11:19:43.694Z,28.20
2019-06-01T11:22:28.134Z,28.40
2019-06-01T11:25:11.795Z,28.40
2019-06-01T11:27:56.019Z,28.50
2019-06-01T11:30:40.217Z,28.60
2019-06-01T11:33:23.827Z,28.80
2019-06-01T11:36:08.438Z,28.80
2019-06-01T11:38:53.155Z,28.90
2019-06-01T11:41:25.885Z,28.90
2019-06-01T11:44:10.271Z,28.80
2019-06-01T11:46:53.983Z,28.60
2019-06-01T11:49:38.676Z,28.40
2019-06-01T11:52:23.140Z,28.60
2019-06-01T11:55:07.518Z,28.40
2019-06-01T11:57:51.307Z,28.30
2019-06-01T12:00:35.780Z,28.00
2019-06-01T12:03:19.996Z,27.90
2019-06-01T12:06:03.612Z,27.40
2019-06-01T12:08:47.285Z,27.50
2019-06-01T12:11:31.456Z,27.60
2019-06-01T12:14:15.930Z,27.50
2019-06-01T12:16:59.131Z,26.50
2019-06-01T12:19:44.769Z,26.10
2019-06-01T12:22:30.529Z,26.10
2019-06-01T12:25:14.464Z,26.60
2019-06-01T12:27:58.943Z,27.10
2019-06-01T12:30:43.739Z,26.10
2019-06-01T12:33:27.850Z,26.20
2019-06-01T12:36:00.133Z,26.40
2019-06-01T12:38:52.178Z,26.60
2019-06-01T12:41:36.718Z,26.00
2019-06-01T12:44:20.419Z,26.10
2019-06-01T12:47:04.657Z,26.10
2019-06-01T12:49:48.940Z,26.00
2019-06-01T12:52:22.577Z,26.10
2019-06-01T12:55:06.788Z,26.60
2019-06-01T12:57:51.346Z,26.00
2019-06-01T13:00:35.536Z,26.20
2019-06-01T13:03:19.515Z,26.10
2019-06-01T13:06:04.008Z,26.30
2019-06-01T13:08:48.870Z,26.20
2019-06-01T13:11:22.618Z,25.60
2019-06-01T13:14:07.071Z,25.40
2019-06-01T13:17:05.954Z,25.70
2019-06-01T13:19:36.216Z,25.40
2019-06-01T13:22:20.070Z,25.60
2019-06-01T13:25:04.625Z,25.90
2019-06-01T13:27:49.052Z,25.80
2019-06-01T13:30:34.589Z,25.30
2019-06-01T13:33:18.834Z,25.20
2019-06-01T13:36:04.220Z,25.00
2019-06-01T13:38:48.798Z,25.00
2019-06-01T13:41:32.221Z,25.50
2019-06-01T13:44:16.160Z,25.70
2019-06-01T13:47:00.166Z,25.80
2019-06-01T13:49:46.852Z,25.90
2019-06-01T13:52:32.292Z,25.60
2019-06-01T13:55:16.627Z,25.50
2019-06-01T13:58:01.023Z,25.50
2019-06-01T14:00:46.215Z,25.30
2019-06-01T14:03:29.957Z,25.10
2019-06-01T14:06:13.580Z,25.10
2019-06-01T14:08:57.659Z,25.00
2019-06-01T14:11:41.736Z,24.70
2019-06-01T14:14:26.501Z,24.60
2019-06-01T14:17:10.804Z,24.50
2019-06-01T14:19:55.885Z,24.60
2019-06-01T14:22:40.306Z,24.50
2019-06-01T14:25:24.455Z,24.40
2019-06-01T14:28:08.668Z,24.20
2019-06-01T14:30:54.282Z,24.00
2019-06-01T14:33:38.781Z,23.50
2019-06-01T14:36:23.114Z,23.20
2019-06-01T14:39:08.342Z,23.30
2019-06-01T14:41:53.490Z,23.10
2019-06-01T14:44:37.315Z,22.60
2019-06-01T14:47:21.196Z,22.30
2019-06-01T14:50:05.252Z,22.20
2019-06-01T14:52:49.947Z,22.10
2019-06-01T14:55:34.352Z,22.00
2019-06-01T14:58:18.461Z,22.10
2019-06-01T15:01:02.557Z,22.40
2019-06-01T15:03:48.134Z,22.50
2019-06-01T15:06:33.020Z,22.50
2019-06-01T15:09:19.463Z,22.60
2019-06-01T15:12:02.072Z,22.70
2019-06-01T15:14:48.446Z,22.60
2019-06-01T15:17:32.912Z,22.60
2019-06-01T15:20:17.529Z,22.20
2019-06-01T15:23:03.600Z,22.20
2019-06-01T15:25:47.430Z,22.30
2019-06-01T15:28:31.524Z,22.40
2019-06-01T15:31:15.556Z,22.40
2019-06-01T15:33:59.821Z,22.40
2019-06-01T15:36:44.463Z,22.30
2019-06-01T15:39:28.683Z,22.20
2019-06-01T15:42:12.410Z,22.20
2019-06-01T15:44:57.245Z,22.00
2019-06-01T15:47:41.692Z,22.00
2019-06-01T15:50:25.909Z,21.90
2019-06-01T15:52:59.331Z,21.80
2019-06-01T15:55:43.695Z,21.70
2019-06-01T15:58:27.581Z,21.60
2019-06-01T16:01:12.125Z,21.60
2019-06-01T16:03:57.329Z,21.40
2019-06-01T16:06:41.131Z,21.30
2019-06-01T16:09:41.581Z,21.40
2019-06-01T16:12:10.834Z,21.30
2019-06-01T16:14:55.562Z,21.30
2019-06-01T16:17:39.914Z,21.20
2019-06-01T16:20:23.609Z,21.20
2019-06-01T16:23:07.663Z,21.10
2019-06-01T16:26:04.874Z,21.10
2019-06-01T16:28:37.822Z,21.10
2019-06-01T16:31:22.146Z,20.90
2019-06-01T16:33:56.474Z,20.90
2019-06-01T16:36:40.630Z,20.90
2019-06-01T16:39:25.015Z,20.80
2019-06-01T16:42:08.738Z,20.60
2019-06-01T16:44:52.921Z,20.60
2019-06-01T16:47:37.230Z,20.60
2019-06-01T16:50:20.849Z,20.60
2019-06-01T16:52:53.768Z,20.50
2019-06-01T16:55:37.675Z,20.40
2019-06-01T16:58:12.194Z,20.30
2019-06-01T17:00:56.399Z,20.30
2019-06-01T17:03:40.516Z,20.30
2019-06-01T17:06:24.960Z,20.20
2019-06-01T17:09:09.082Z,20.10
2019-06-01T17:11:53.245Z,20.00
2019-06-01T17:15:07.146Z,19.90
2019-06-01T17:18:05.059Z,19.80
2019-06-01T17:20:47.540Z,19.80
2019-06-01T17:23:33.155Z,19.80
2019-06-01T17:26:17.183Z,19.80
2019-06-01T17:29:02.108Z,19.90
2019-06-01T17:31:54.353Z,19.90
2019-06-01T17:34:31.805Z,19.80
2019-06-01T17:37:16.217Z,19.70
2019-06-01T17:40:00.058Z,19.60
2019-06-01T17:42:43.867Z,19.50
2019-06-01T17:45:28.286Z,19.50
2019-06-01T17:48:25.064Z,19.50
2019-06-01T17:50:58.240Z,19.50
2019-06-01T17:53:42.690Z,19.50
2019-06-01T17:56:26.981Z,19.50
2019-06-01T17:59:11.569Z,19.40
2019-06-01T18:01:56.158Z,19.40
2019-06-01T18:04:40.845Z,19.40
2019-06-01T18:07:24.441Z,19.40
2019-06-01T18:10:10.179Z,19.40
2019-06-01T18:12:54.160Z,19.30
2019-06-01T18:15:38.883Z,19.30
2019-06-01T18:18:22.684Z,19.40
2019-06-01T18:21:06.775Z,19.30
2019-06-01T18:23:51.374Z,19.30
2019-06-01T18:26:35.949Z,19.10
2019-06-01T18:29:20.394Z,19.10
2019-06-01T18:32:05.761Z,19.10
2019-06-01T18:34:49.654Z,19.00
2019-06-01T18:37:33.696Z,18.90
2019-06-01T18:40:18.677Z,18.90
2019-06-01T18:43:05.919Z,18.90
2019-06-01T18:45:49.975Z,18.80
2019-06-01T18:48:34.439Z,18.70
2019-06-01T18:51:18.878Z,18.70
2019-06-01T18:54:04.234Z,18.60
2019-06-01T18:56:48.414Z,18.50
2019-06-01T18:59:32.933Z,18.40
2019-06-01T19:02:17.702Z,18.40
2019-06-01T19:05:02.105Z,18.40
2019-06-01T19:07:46.555Z,18.30
2019-06-01T19:10:30.687Z,18.20
2019-06-01T19:13:14.371Z,18.10
2019-06-01T19:15:58.699Z,18.10
2019-06-01T19:18:43.212Z,18.00
2019-06-01T19:21:27.278Z,18.00
2019-06-01T19:24:12.708Z,17.90
2019-06-01T19:26:57.149Z,17.90
2019-06-01T19:29:29.893Z,17.80
2019-06-01T19:32:15.024Z,17.70
2019-06-01T19:34:59.961Z,17.70
2019-06-01T19:37:43.630Z,17.70
2019-06-01T19:40:32.100Z,17.70
2019-06-01T19:43:16.063Z,17.70
2019-06-01T19:45:59.635Z,17.70
2019-06-01T19:48:43.512Z,17.80
2019-06-01T19:51:27.373Z,17.80
2019-06-01T19:54:11.074Z,17.80
2019-06-01T19:56:55.428Z,17.80
2019-06-01T19:59:39.949Z,17.80
2019-06-01T20:02:33.294Z,17.80
2019-06-01T20:04:58.815Z,17.70
2019-06-01T20:07:31.716Z,17.60
2019-06-01T20:10:23.477Z,17.50
2019-06-01T20:12:55.885Z,17.50
2019-06-01T20:15:28.301Z,17.40
2019-06-01T20:18:01.421Z,17.40
2019-06-01T20:20:33.757Z,17.40
2019-06-01T20:23:06.126Z,17.40
2019-06-01T20:25:38.514Z,17.30
2019-06-01T20:28:11.631Z,17.30
2019-06-01T20:30:44.106Z,17.30
2019-06-01T20:33:16.436Z,17.20
2019-06-01T20:35:48.711Z,17.20
2019-06-01T20:38:23.034Z,17.20
2019-06-01T20:40:55.121Z,17.20
2019-06-01T20:43:27.405Z,17.10
2019-06-01T20:46:00.102Z,17.20
2019-06-01T20:48:32.451Z,17.10
2019-06-01T20:51:04.739Z,17.10
2019-06-01T20:53:37.059Z,17.10
2019-06-01T20:56:09.354Z,17.00
2019-06-01T20:58:41.716Z,17.00
2019-06-01T21:01:14.084Z,17.00
2019-06-01T21:03:46.384Z,16.90
2019-06-01T21:06:20.416Z,16.90
2019-06-01T21:08:52.701Z,16.90
2019-06-01T21:11:25.043Z,16.90
2019-06-01T21:13:57.427Z,16.80
2019-06-01T21:16:30.100Z,16.80
2019-06-01T21:19:02.749Z,16.80
2019-06-01T21:21:35.074Z,16.70
2019-06-01T21:24:07.343Z,16.70
2019-06-01T21:26:39.703Z,16.70
2019-06-01T21:29:12.062Z,16.60
2019-06-01T21:31:45.039Z,16.60
2019-06-01T21:34:17.653Z,16.60
2019-06-01T21:36:49.917Z,16.60
2019-06-01T21:39:23.481Z,16.50
2019-06-01T21:41:56.235Z,16.50
2019-06-01T21:44:29.526Z,16.50
2019-06-01T21:47:02.983Z,16.50
2019-06-01T21:49:35.359Z,16.40
2019-06-01T21:52:07.648Z,16.40
2019-06-01T21:54:40.086Z,16.40
2019-06-01T21:57:12.365Z,16.30
2019-06-01T21:59:44.685Z,16.40
2019-06-01T22:02:17.104Z,16.30
2019-06-01T22:04:49.402Z,16.30
2019-06-01T22:07:23.003Z,16.30
2019-06-01T22:09:55.597Z,16.30
2019-06-01T22:12:27.949Z,16.30
2019-06-01T22:15:00.205Z,16.30
2019-06-01T22:17:33.339Z,16.20
2019-06-01T22:20:06.626Z,16.20
2019-06-01T22:22:38.994Z,16.20
2019-06-01T22:25:12.920Z,16.10
2019-06-01T22:27:45.234Z,16.10
2019-06-01T22:30:18.412Z,16.10
2019-06-01T22:32:50.748Z,16.00
2019-06-01T22:35:23.027Z,16.00
2019-06-01T22:37:55.438Z,16.00
2019-06-01T22:40:29.373Z,16.00
2019-06-01T22:43:01.749Z,15.90
2019-06-01T22:45:34.843Z,15.90
2019-06-01T22:48:07.128Z,15.90
2019-06-01T22:50:39.516Z,15.80
2019-06-01T22:53:11.811Z,15.80
2019-06-01T22:55:44.154Z,15.80
2019-06-01T22:58:17.434Z,15.90
2019-06-01T23:00:50.187Z,15.80
2019-06-01T23:03:23.526Z,15.80
2019-06-01T23:05:56.332Z,15.70
2019-06-01T23:08:29.496Z,15.60
2019-06-01T23:11:02.419Z,15.60
2019-06-01T23:13:34.988Z,15.50
2019-06-01T23:16:07.288Z,15.50
2019-06-01T23:18:39.641Z,15.50
2019-06-01T23:21:11.993Z,15.50
2019-06-01T23:23:44.332Z,15.50
2019-06-01T23:26:16.668Z,15.40
2019-06-01T23:28:48.959Z,15.40
2019-06-01T23:31:22.238Z,15.40
2019-06-01T23:33:54.710Z,15.40
2019-06-01T23:36:27.074Z,15.40
2019-06-01T23:38:59.636Z,15.30
2019-06-01T23:41:32.934Z,15.30
2019-06-01T23:44:11.648Z,15.30
2019-06-01T23:46:40.541Z,15.20
2019-06-01T23:49:12.871Z,15.20
2019-06-01T23:51:45.458Z,15.20
2019-06-01T23:54:17.739Z,15.20
2019-06-01T23:56:50.879Z,15.20
2019-06-01T23:59:24.057Z,15.20
